Eagleville, New York
Current Conditions -  °F | °C
As of 8:54 PM on Friday 28 Nov 2014 (Local Time) from KDDH Reporting Station
Overcast Overcast  
Wind Chill: 12°   Ceiling: 4400
Heat Index: 22°   Visibility: 10mi
Dew Point: 16°   Wind: 9mph
Humidity: 78%   Direction: 270°W
Pressure: 30.17"   Gusts: NA
Location:  43.1288°N, 73.306°W
Report Text: KDDH 290154Z AUTO 27008KT 10SM OVC044 M06/M09 A3017 RMK AO2 SLP227 T10561089 $
Loading
Personal Weather Stations






























Interactive Weather Map New forecast layout! Learn more

10-Day Weather Forecast

Advertisements
Track Severe Weather on mobile